Etusivu
METAR-TAF:

METAR-TAF

Lentoasemat :

Kuchingin kansainvälinen lentoasema

Kuching, Malesia

Leveyspiiri: 01-29N, Pituuspiiri: 110-20E, korkeus merenpinnasta: 27 m

Tämänhetkinen sää

Tämä raportti tehtiin 34 minuuttia sitten, kello 05.30 UTC
Tuuli 4 kn pohjoisesta/koillisesta, vaihdellen luoteen ja idän välillä
Lämpötila 32°C
Kosteus 67%
Ilmanpaine 1009 hPa
Näkyvyys 10 km tai enemmän
Muutamia pilviä 1500 ft:n korkeudessa, Cumulonimbus.
Hajanaisia pilviä 2000 ft:n korkeudessa

METAR: WBGG 020530Z 02004KT 310V100 9999 FEW015CB SCT020 32/25 Q1009 NOSIG

Aika: 14:04 (06:04 UTC)

Sääennuste

Tämä raportti tehtiin 1 tunti ja 4 minuuttia sitten, kello 05.00 UTC
Ennuste voimassa 02. päivästä klo 06 UTC - 03. päivään klo 06 UTC
Tuuli 3 kn eri suunnista
Näkyvyys 10 km tai enemmän
Hajanaisia pilviä 1800 ft:n korkeudessa

TAF: WBGG 020500Z 0206/0306 VRB03KT 9999 SCT018

Säähavainnot ja -ennusteet yli 4000 lentoasemalta (METAR- ja TAF-raportit).

Käytössä olevat sääasemat on merkitty karttaan keltaisilla ja punaisilla pisteillä.

Aseta hiiri pisteen päälle nähdäksesi sääaseman nimen.

Klikkaa sitten nähdäksesi säähavainnot ja -ennusteet.

Kartan vaihtaminen: klikkaa mustalla rastilla varustettuja vihreitä pisteitä, niin voit zoomata sisään; viivalla varustettua vihreää pistettä, niin voit zoomata ulos tai vihreitä nuolia, niin pääset viereisille kartoille.


METAR-TAF: